Terminal Aerodrome Forecast
Issued by NWS Mt. Holly, NJ

Home | Current Version | Previous Version | Text Only | Print | Product List | Glossary On
Versions: 1 2 3 4 5 6 7 8 9 10 11 12 13 14 15 16 17 18 19 20 21 22 23 24 25 26 27 28 29 30 31 32
403
FTUS41 KPHI 260532
TAFPHL
TAF
KPHL 260532Z 2606/2712 27006KT P6SM SCT015 BKN080
      TEMPO 2606/2610 4SM -SHRA BR OVC015
     FM261000 27008KT P6SM BKN015 BKN080
     FM261300 27012G20KT P6SM BKN045
      TEMPO 2615/2619 -SHRA
     FM270100 30008KT P6SM SCT250=

USA.gov is the U.S. government's official web portal to all federal, state and local government web resources and services.